sensor_id;sensor_type;location;lat;lon;timestamp;P1;P2;P0
85187;PMS5003;75557;51.048;-0.424;2024-01-30T00:02:02;10;8;
85187;PMS5003;75557;51.048;-0.424;2024-01-30T00:04:27;11;9;
85187;PMS5003;75557;51.048;-0.424;2024-01-30T00:06:53;10;9;
85187;PMS5003;75557;51.048;-0.424;2024-01-30T00:09:19;14;12;
85187;PMS5003;75557;51.048;-0.424;2024-01-30T00:11:44;10;8;
85187;PMS5003;75557;51.048;-0.424;2024-01-30T00:14:10;11;9;
85187;PMS5003;75557;51.048;-0.424;2024-01-30T00:16:35;7;7;
85187;PMS5003;75557;51.048;-0.424;2024-01-30T00:19:01;14;13;
85187;PMS5003;75557;51.048;-0.424;2024-01-30T00:21:27;10;8;
85187;PMS5003;75557;51.048;-0.424;2024-01-30T00:23:52;11;9;
85187;PMS5003;75557;51.048;-0.424;2024-01-30T00:26:18;6;6;
85187;PMS5003;75557;51.048;-0.424;2024-01-30T00:28:44;9;9;
85187;PMS5003;75557;51.048;-0.424;2024-01-30T00:31:09;5;5;
85187;PMS5003;75557;51.048;-0.424;2024-01-30T00:33:35;9;8;
85187;PMS5003;75557;51.048;-0.424;2024-01-30T00:36:00;11;9;
85187;PMS5003;75557;51.048;-0.424;2024-01-30T00:38:26;6;6;
85187;PMS5003;75557;51.048;-0.424;2024-01-30T00:40:51;6;6;
85187;PMS5003;75557;51.048;-0.424;2024-01-30T00:43:17;7;7;
85187;PMS5003;75557;51.048;-0.424;2024-01-30T00:45:43;8;8;
85187;PMS5003;75557;51.048;-0.424;2024-01-30T00:48:08;5;5;
85187;PMS5003;75557;51.048;-0.424;2024-01-30T00:50:33;6;6;
85187;PMS5003;75557;51.048;-0.424;2024-01-30T00:52:59;7;6;
85187;PMS5003;75557;51.048;-0.424;2024-01-30T00:55:25;5;5;
85187;PMS5003;75557;51.048;-0.424;2024-01-30T00:57:50;6;6;
85187;PMS5003;75557;51.048;-0.424;2024-01-30T01:00:16;6;5;
85187;PMS5003;75557;51.048;-0.424;2024-01-30T01:02:41;5;5;
85187;PMS5003;75557;51.048;-0.424;2024-01-30T01:05:07;7;6;
85187;PMS5003;75557;51.048;-0.424;2024-01-30T01:07:32;4;4;
85187;PMS5003;75557;51.048;-0.424;2024-01-30T01:09:58;7;7;
85187;PMS5003;75557;51.048;-0.424;2024-01-30T01:12:23;6;5;
85187;PMS5003;75557;51.048;-0.424;2024-01-30T01:14:49;5;5;
85187;PMS5003;75557;51.048;-0.424;2024-01-30T01:17:14;9;4;
85187;PMS5003;75557;51.048;-0.424;2024-01-30T01:19:40;4;4;
85187;PMS5003;75557;51.048;-0.424;2024-01-30T01:22:05;4;3;
85187;PMS5003;75557;51.048;-0.424;2024-01-30T01:24:31;5;3;
85187;PMS5003;75557;51.048;-0.424;2024-01-30T01:26:57;2;2;
85187;PMS5003;75557;51.048;-0.424;2024-01-30T01:29:22;4;4;
85187;PMS5003;75557;51.048;-0.424;2024-01-30T01:31:48;6;4;
85187;PMS5003;75557;51.048;-0.424;2024-01-30T01:34:13;2;2;
85187;PMS5003;75557;51.048;-0.424;2024-01-30T01:36:39;5;5;
85187;PMS5003;75557;51.048;-0.424;2024-01-30T01:39:04;2;1;
85187;PMS5003;75557;51.048;-0.424;2024-01-30T01:41:30;4;2;
85187;PMS5003;75557;51.048;-0.424;2024-01-30T01:43:55;5;4;
85187;PMS5003;75557;51.048;-0.424;2024-01-30T01:46:21;2;2;
85187;PMS5003;75557;51.048;-0.424;2024-01-30T01:48:47;3;2;
85187;PMS5003;75557;51.048;-0.424;2024-01-30T01:51:12;4;4;
85187;PMS5003;75557;51.048;-0.424;2024-01-30T01:53:38;4;4;
85187;PMS5003;75557;51.048;-0.424;2024-01-30T01:56:04;4;2;
85187;PMS5003;75557;51.048;-0.424;2024-01-30T01:58:29;3;2;
85187;PMS5003;75557;51.048;-0.424;2024-01-30T02:00:54;2;1;
85187;PMS5003;75557;51.048;-0.424;2024-01-30T02:03:20;2;2;
85187;PMS5003;75557;51.048;-0.424;2024-01-30T02:05:46;2;2;
85187;PMS5003;75557;51.048;-0.424;2024-01-30T02:08:11;2;2;
85187;PMS5003;75557;51.048;-0.424;2024-01-30T02:10:37;4;3;
85187;PMS5003;75557;51.048;-0.424;2024-01-30T02:13:03;1;1;
85187;PMS5003;75557;51.048;-0.424;2024-01-30T02:15:28;2;2;
85187;PMS5003;75557;51.048;-0.424;2024-01-30T02:17:53;2;2;
85187;PMS5003;75557;51.048;-0.424;2024-01-30T02:20:19;2;2;
85187;PMS5003;75557;51.048;-0.424;2024-01-30T02:22:44;0;0;
85187;PMS5003;75557;51.048;-0.424;2024-01-30T02:25:10;3;1;
85187;PMS5003;75557;51.048;-0.424;2024-01-30T02:27:36;0;0;
85187;PMS5003;75557;51.048;-0.424;2024-01-30T02:30:01;1;1;
85187;PMS5003;75557;51.048;-0.424;2024-01-30T02:32:27;3;2;
85187;PMS5003;75557;51.048;-0.424;2024-01-30T02:34:52;2;2;
85187;PMS5003;75557;51.048;-0.424;2024-01-30T02:37:18;1;1;
85187;PMS5003;75557;51.048;-0.424;2024-01-30T02:39:43;1;1;
85187;PMS5003;75557;51.048;-0.424;2024-01-30T02:42:09;3;2;
85187;PMS5003;75557;51.048;-0.424;2024-01-30T02:44:34;3;1;
85187;PMS5003;75557;51.048;-0.424;2024-01-30T02:47:00;1;1;
85187;PMS5003;75557;51.048;-0.424;2024-01-30T02:49:25;1;1;
85187;PMS5003;75557;51.048;-0.424;2024-01-30T02:51:52;1;1;
85187;PMS5003;75557;51.048;-0.424;2024-01-30T02:54:17;0;0;
85187;PMS5003;75557;51.048;-0.424;2024-01-30T02:56:42;2;2;
85187;PMS5003;75557;51.048;-0.424;2024-01-30T02:59:08;0;0;
85187;PMS5003;75557;51.048;-0.424;2024-01-30T03:01:33;4;1;
85187;PMS5003;75557;51.048;-0.424;2024-01-30T03:03:59;1;1;
85187;PMS5003;75557;51.048;-0.424;2024-01-30T03:06:24;0;0;
85187;PMS5003;75557;51.048;-0.424;2024-01-30T03:08:50;2;1;
85187;PMS5003;75557;51.048;-0.424;2024-01-30T03:11:15;2;2;
85187;PMS5003;75557;51.048;-0.424;2024-01-30T03:13:41;1;1;
85187;PMS5003;75557;51.048;-0.424;2024-01-30T03:16:08;1;1;
85187;PMS5003;75557;51.048;-0.424;2024-01-30T03:18:32;3;1;
85187;PMS5003;75557;51.048;-0.424;2024-01-30T03:20:58;2;1;
85187;PMS5003;75557;51.048;-0.424;2024-01-30T03:23:23;1;1;
85187;PMS5003;75557;51.048;-0.424;2024-01-30T03:25:49;0;0;
85187;PMS5003;75557;51.048;-0.424;2024-01-30T03:28:14;1;1;
85187;PMS5003;75557;51.048;-0.424;2024-01-30T03:30:40;0;0;
85187;PMS5003;75557;51.048;-0.424;2024-01-30T03:33:05;1;1;
85187;PMS5003;75557;51.048;-0.424;2024-01-30T03:35:31;2;2;
85187;PMS5003;75557;51.048;-0.424;2024-01-30T03:37:56;2;1;
85187;PMS5003;75557;51.048;-0.424;2024-01-30T03:40:22;0;0;
85187;PMS5003;75557;51.048;-0.424;2024-01-30T03:42:48;0;0;
85187;PMS5003;75557;51.048;-0.424;2024-01-30T03:45:13;1;0;
85187;PMS5003;75557;51.048;-0.424;2024-01-30T03:47:39;0;0;
85187;PMS5003;75557;51.048;-0.424;2024-01-30T03:50:04;0;0;
85187;PMS5003;75557;51.048;-0.424;2024-01-30T03:52:30;2;1;
85187;PMS5003;75557;51.048;-0.424;2024-01-30T03:54:55;1;1;
85187;PMS5003;75557;51.048;-0.424;2024-01-30T03:57:21;1;1;
85187;PMS5003;75557;51.048;-0.424;2024-01-30T03:59:46;1;1;
85187;PMS5003;75557;51.048;-0.424;2024-01-30T04:02:12;0;0;
85187;PMS5003;75557;51.048;-0.424;2024-01-30T04:04:38;1;1;
85187;PMS5003;75557;51.048;-0.424;2024-01-30T04:07:03;1;1;
85187;PMS5003;75557;51.048;-0.424;2024-01-30T04:09:29;0;0;
85187;PMS5003;75557;51.048;-0.424;2024-01-30T04:11:54;1;1;
85187;PMS5003;75557;51.048;-0.424;2024-01-30T04:14:20;1;1;
85187;PMS5003;75557;51.048;-0.424;2024-01-30T04:16:45;0;0;
85187;PMS5003;75557;51.048;-0.424;2024-01-30T04:19:11;0;0;
85187;PMS5003;75557;51.048;-0.424;2024-01-30T04:21:36;2;0;
85187;PMS5003;75557;51.048;-0.424;2024-01-30T04:24:02;1;1;
85187;PMS5003;75557;51.048;-0.424;2024-01-30T04:26:27;1;1;
85187;PMS5003;75557;51.048;-0.424;2024-01-30T04:28:53;0;0;
85187;PMS5003;75557;51.048;-0.424;2024-01-30T04:31:19;1;1;
85187;PMS5003;75557;51.048;-0.424;2024-01-30T04:33:44;1;1;
85187;PMS5003;75557;51.048;-0.424;2024-01-30T04:36:10;1;0;
85187;PMS5003;75557;51.048;-0.424;2024-01-30T04:38:35;0;0;
85187;PMS5003;75557;51.048;-0.424;2024-01-30T04:41:01;1;1;
85187;PMS5003;75557;51.048;-0.424;2024-01-30T04:43:26;0;0;
85187;PMS5003;75557;51.048;-0.424;2024-01-30T04:45:52;2;0;
85187;PMS5003;75557;51.048;-0.424;2024-01-30T04:48:17;0;0;
85187;PMS5003;75557;51.048;-0.424;2024-01-30T04:50:43;0;0;
85187;PMS5003;75557;51.048;-0.424;2024-01-30T04:53:08;1;0;
85187;PMS5003;75557;51.048;-0.424;2024-01-30T04:55:35;0;0;
85187;PMS5003;75557;51.048;-0.424;2024-01-30T04:58:00;0;0;
85187;PMS5003;75557;51.048;-0.424;2024-01-30T05:00:25;0;0;
85187;PMS5003;75557;51.048;-0.424;2024-01-30T05:02:51;1;0;
85187;PMS5003;75557;51.048;-0.424;2024-01-30T05:05:16;0;0;
85187;PMS5003;75557;51.048;-0.424;2024-01-30T05:07:42;1;1;
85187;PMS5003;75557;51.048;-0.424;2024-01-30T05:10:08;2;2;
85187;PMS5003;75557;51.048;-0.424;2024-01-30T05:12:33;0;0;
85187;PMS5003;75557;51.048;-0.424;2024-01-30T05:14:58;1;1;
85187;PMS5003;75557;51.048;-0.424;2024-01-30T05:17:24;0;0;
85187;PMS5003;75557;51.048;-0.424;2024-01-30T05:19:50;0;0;
85187;PMS5003;75557;51.048;-0.424;2024-01-30T05:22:15;1;1;
85187;PMS5003;75557;51.048;-0.424;2024-01-30T05:24:41;0;0;
85187;PMS5003;75557;51.048;-0.424;2024-01-30T05:27:06;0;0;
85187;PMS5003;75557;51.048;-0.424;2024-01-30T05:29:32;0;0;
85187;PMS5003;75557;51.048;-0.424;2024-01-30T05:31:57;2;0;
85187;PMS5003;75557;51.048;-0.424;2024-01-30T05:34:23;1;1;
85187;PMS5003;75557;51.048;-0.424;2024-01-30T05:36:49;1;0;
85187;PMS5003;75557;51.048;-0.424;2024-01-30T05:39:14;0;0;
85187;PMS5003;75557;51.048;-0.424;2024-01-30T05:41:40;0;0;
85187;PMS5003;75557;51.048;-0.424;2024-01-30T05:44:05;0;0;
85187;PMS5003;75557;51.048;-0.424;2024-01-30T05:46:31;0;0;
85187;PMS5003;75557;51.048;-0.424;2024-01-30T05:48:56;0;0;
85187;PMS5003;75557;51.048;-0.424;2024-01-30T05:51:22;0;0;
85187;PMS5003;75557;51.048;-0.424;2024-01-30T05:53:47;0;0;
85187;PMS5003;75557;51.048;-0.424;2024-01-30T05:56:18;0;0;
85187;PMS5003;75557;51.048;-0.424;2024-01-30T05:58:38;0;0;
85187;PMS5003;75557;51.048;-0.424;2024-01-30T06:01:06;0;0;
85187;PMS5003;75557;51.048;-0.424;2024-01-30T06:03:30;0;0;
85187;PMS5003;75557;51.048;-0.424;2024-01-30T06:05:55;0;0;
85187;PMS5003;75557;51.048;-0.424;2024-01-30T06:08:21;0;0;
85187;PMS5003;75557;51.048;-0.424;2024-01-30T06:10:46;0;0;
85187;PMS5003;75557;51.048;-0.424;2024-01-30T06:13:12;0;0;
85187;PMS5003;75557;51.048;-0.424;2024-01-30T06:15:37;0;0;
85187;PMS5003;75557;51.048;-0.424;2024-01-30T06:18:03;0;0;
85187;PMS5003;75557;51.048;-0.424;2024-01-30T06:20:28;0;0;
85187;PMS5003;75557;51.048;-0.424;2024-01-30T06:22:54;0;0;
85187;PMS5003;75557;51.048;-0.424;2024-01-30T06:25:19;0;0;
85187;PMS5003;75557;51.048;-0.424;2024-01-30T06:27:45;0;0;
85187;PMS5003;75557;51.048;-0.424;2024-01-30T06:30:11;0;0;
85187;PMS5003;75557;51.048;-0.424;2024-01-30T06:32:36;0;0;
85187;PMS5003;75557;51.048;-0.424;2024-01-30T06:35:02;0;0;
85187;PMS5003;75557;51.048;-0.424;2024-01-30T06:37:27;0;0;
85187;PMS5003;75557;51.048;-0.424;2024-01-30T06:39:53;0;0;
85187;PMS5003;75557;51.048;-0.424;2024-01-30T06:42:19;0;0;
85187;PMS5003;75557;51.048;-0.424;2024-01-30T06:44:44;0;0;
85187;PMS5003;75557;51.048;-0.424;2024-01-30T06:47:09;0;0;
85187;PMS5003;75557;51.048;-0.424;2024-01-30T06:49:35;0;0;
85187;PMS5003;75557;51.048;-0.424;2024-01-30T06:52:00;1;1;
85187;PMS5003;75557;51.048;-0.424;2024-01-30T06:54:26;2;1;
85187;PMS5003;75557;51.048;-0.424;2024-01-30T06:56:51;0;0;
85187;PMS5003;75557;51.048;-0.424;2024-01-30T06:59:17;0;0;
85187;PMS5003;75557;51.048;-0.424;2024-01-30T07:01:42;0;0;
85187;PMS5003;75557;51.048;-0.424;2024-01-30T07:04:08;0;0;
85187;PMS5003;75557;51.048;-0.424;2024-01-30T07:06:34;0;0;
85187;PMS5003;75557;51.048;-0.424;2024-01-30T07:08:59;0;0;
85187;PMS5003;75557;51.048;-0.424;2024-01-30T07:11:25;0;0;
85187;PMS5003;75557;51.048;-0.424;2024-01-30T07:13:50;0;0;
85187;PMS5003;75557;51.048;-0.424;2024-01-30T07:16:16;0;0;
85187;PMS5003;75557;51.048;-0.424;2024-01-30T07:18:41;0;0;
85187;PMS5003;75557;51.048;-0.424;2024-01-30T07:21:07;0;0;
85187;PMS5003;75557;51.048;-0.424;2024-01-30T07:23:32;1;1;
85187;PMS5003;75557;51.048;-0.424;2024-01-30T07:25:58;0;0;
85187;PMS5003;75557;51.048;-0.424;2024-01-30T07:28:24;3;1;
85187;PMS5003;75557;51.048;-0.424;2024-01-30T07:30:49;0;0;
85187;PMS5003;75557;51.048;-0.424;2024-01-30T07:33:15;0;0;
85187;PMS5003;75557;51.048;-0.424;2024-01-30T07:35:40;0;0;
85187;PMS5003;75557;51.048;-0.424;2024-01-30T07:38:06;1;1;
85187;PMS5003;75557;51.048;-0.424;2024-01-30T07:40:32;0;0;
85187;PMS5003;75557;51.048;-0.424;2024-01-30T07:42:57;0;0;
85187;PMS5003;75557;51.048;-0.424;2024-01-30T07:45:22;1;1;
85187;PMS5003;75557;51.048;-0.424;2024-01-30T07:47:48;0;0;
85187;PMS5003;75557;51.048;-0.424;2024-01-30T07:50:13;1;1;
85187;PMS5003;75557;51.048;-0.424;2024-01-30T07:52:39;1;1;
85187;PMS5003;75557;51.048;-0.424;2024-01-30T07:55:05;1;1;
85187;PMS5003;75557;51.048;-0.424;2024-01-30T07:57:30;3;2;
85187;PMS5003;75557;51.048;-0.424;2024-01-30T07:59:56;2;1;
85187;PMS5003;75557;51.048;-0.424;2024-01-30T08:02:21;0;0;
85187;PMS5003;75557;51.048;-0.424;2024-01-30T08:04:47;1;1;
85187;PMS5003;75557;51.048;-0.424;2024-01-30T08:07:12;4;1;
85187;PMS5003;75557;51.048;-0.424;2024-01-30T08:09:38;1;1;
85187;PMS5003;75557;51.048;-0.424;2024-01-30T08:12:04;0;0;
85187;PMS5003;75557;51.048;-0.424;2024-01-30T08:14:29;1;1;
85187;PMS5003;75557;51.048;-0.424;2024-01-30T08:16:54;1;1;
85187;PMS5003;75557;51.048;-0.424;2024-01-30T08:19:20;1;1;
85187;PMS5003;75557;51.048;-0.424;2024-01-30T08:21:46;1;1;
85187;PMS5003;75557;51.048;-0.424;2024-01-30T08:24:11;2;0;
85187;PMS5003;75557;51.048;-0.424;2024-01-30T08:26:37;0;0;
85187;PMS5003;75557;51.048;-0.424;2024-01-30T08:29:02;1;1;
85187;PMS5003;75557;51.048;-0.424;2024-01-30T08:31:28;0;0;
85187;PMS5003;75557;51.048;-0.424;2024-01-30T08:33:53;0;0;
85187;PMS5003;75557;51.048;-0.424;2024-01-30T08:36:19;0;0;
85187;PMS5003;75557;51.048;-0.424;2024-01-30T08:38:44;1;1;
85187;PMS5003;75557;51.048;-0.424;2024-01-30T08:41:10;0;0;
85187;PMS5003;75557;51.048;-0.424;2024-01-30T08:43:36;0;0;
85187;PMS5003;75557;51.048;-0.424;2024-01-30T08:46:01;0;0;
85187;PMS5003;75557;51.048;-0.424;2024-01-30T08:48:27;0;0;
85187;PMS5003;75557;51.048;-0.424;2024-01-30T08:50:52;1;1;
85187;PMS5003;75557;51.048;-0.424;2024-01-30T08:53:18;1;0;
85187;PMS5003;75557;51.048;-0.424;2024-01-30T08:55:44;1;1;
85187;PMS5003;75557;51.048;-0.424;2024-01-30T08:58:09;0;0;
85187;PMS5003;75557;51.048;-0.424;2024-01-30T09:00:34;0;0;
85187;PMS5003;75557;51.048;-0.424;2024-01-30T09:03:00;0;0;
85187;PMS5003;75557;51.048;-0.424;2024-01-30T09:05:25;1;0;
85187;PMS5003;75557;51.048;-0.424;2024-01-30T09:07:51;0;0;
85187;PMS5003;75557;51.048;-0.424;2024-01-30T09:10:17;1;1;
85187;PMS5003;75557;51.048;-0.424;2024-01-30T09:12:42;2;1;
85187;PMS5003;75557;51.048;-0.424;2024-01-30T09:15:08;1;1;
85187;PMS5003;75557;51.048;-0.424;2024-01-30T09:17:33;1;1;
85187;PMS5003;75557;51.048;-0.424;2024-01-30T09:19:59;0;0;
85187;PMS5003;75557;51.048;-0.424;2024-01-30T09:22:24;1;1;
85187;PMS5003;75557;51.048;-0.424;2024-01-30T09:24:50;1;0;
85187;PMS5003;75557;51.048;-0.424;2024-01-30T09:27:15;2;1;
85187;PMS5003;75557;51.048;-0.424;2024-01-30T09:29:41;2;1;
85187;PMS5003;75557;51.048;-0.424;2024-01-30T09:32:07;1;0;
85187;PMS5003;75557;51.048;-0.424;2024-01-30T09:34:32;0;0;
85187;PMS5003;75557;51.048;-0.424;2024-01-30T09:36:58;0;0;
85187;PMS5003;75557;51.048;-0.424;2024-01-30T09:39:23;1;1;
85187;PMS5003;75557;51.048;-0.424;2024-01-30T09:41:49;0;0;
85187;PMS5003;75557;51.048;-0.424;2024-01-30T09:44:14;0;0;
85187;PMS5003;75557;51.048;-0.424;2024-01-30T09:46:40;0;0;
85187;PMS5003;75557;51.048;-0.424;2024-01-30T09:49:05;0;0;
85187;PMS5003;75557;51.048;-0.424;2024-01-30T09:51:31;0;0;
85187;PMS5003;75557;51.048;-0.424;2024-01-30T09:53:56;1;0;
85187;PMS5003;75557;51.048;-0.424;2024-01-30T09:56:22;1;1;
85187;PMS5003;75557;51.048;-0.424;2024-01-30T09:58:47;0;0;
85187;PMS5003;75557;51.048;-0.424;2024-01-30T10:01:13;0;0;
85187;PMS5003;75557;51.048;-0.424;2024-01-30T10:03:38;1;1;
85187;PMS5003;75557;51.048;-0.424;2024-01-30T10:06:04;2;2;
85187;PMS5003;75557;51.048;-0.424;2024-01-30T10:08:30;1;1;
85187;PMS5003;75557;51.048;-0.424;2024-01-30T10:10:55;2;0;
85187;PMS5003;75557;51.048;-0.424;2024-01-30T10:13:21;2;1;
85187;PMS5003;75557;51.048;-0.424;2024-01-30T10:15:47;0;0;
85187;PMS5003;75557;51.048;-0.424;2024-01-30T10:18:12;2;1;
85187;PMS5003;75557;51.048;-0.424;2024-01-30T10:20:37;2;0;
85187;PMS5003;75557;51.048;-0.424;2024-01-30T10:23:03;0;0;
85187;PMS5003;75557;51.048;-0.424;2024-01-30T10:25:28;0;0;
85187;PMS5003;75557;51.048;-0.424;2024-01-30T10:27:54;1;1;
85187;PMS5003;75557;51.048;-0.424;2024-01-30T10:30:19;1;1;
85187;PMS5003;75557;51.048;-0.424;2024-01-30T10:32:45;2;1;
85187;PMS5003;75557;51.048;-0.424;2024-01-30T10:35:11;1;1;
85187;PMS5003;75557;51.048;-0.424;2024-01-30T10:37:36;2;1;
85187;PMS5003;75557;51.048;-0.424;2024-01-30T10:40:02;3;1;
85187;PMS5003;75557;51.048;-0.424;2024-01-30T10:42:27;0;0;
85187;PMS5003;75557;51.048;-0.424;2024-01-30T10:44:56;0;0;
85187;PMS5003;75557;51.048;-0.424;2024-01-30T10:47:21;1;1;
85187;PMS5003;75557;51.048;-0.424;2024-01-30T10:49:44;1;1;
85187;PMS5003;75557;51.048;-0.424;2024-01-30T10:52:09;1;1;
85187;PMS5003;75557;51.048;-0.424;2024-01-30T10:54:35;1;1;
85187;PMS5003;75557;51.048;-0.424;2024-01-30T10:57:01;1;1;
85187;PMS5003;75557;51.048;-0.424;2024-01-30T10:59:26;1;1;
85187;PMS5003;75557;51.048;-0.424;2024-01-30T11:01:52;1;1;
85187;PMS5003;75557;51.048;-0.424;2024-01-30T11:04:18;1;1;
85187;PMS5003;75557;51.048;-0.424;2024-01-30T11:06:43;2;2;
85187;PMS5003;75557;51.048;-0.424;2024-01-30T11:09:10;0;0;
85187;PMS5003;75557;51.048;-0.424;2024-01-30T11:11:46;1;1;
85187;PMS5003;75557;51.048;-0.424;2024-01-30T11:14:00;1;0;
85187;PMS5003;75557;51.048;-0.424;2024-01-30T11:16:30;2;1;
85187;PMS5003;75557;51.048;-0.424;2024-01-30T11:18:51;1;1;
85187;PMS5003;75557;51.048;-0.424;2024-01-30T11:21:16;1;1;
85187;PMS5003;75557;51.048;-0.424;2024-01-30T11:23:42;1;1;
85187;PMS5003;75557;51.048;-0.424;2024-01-30T11:26:07;3;0;
85187;PMS5003;75557;51.048;-0.424;2024-01-30T11:28:33;1;1;
85187;PMS5003;75557;51.048;-0.424;2024-01-30T11:31:02;4;1;
85187;PMS5003;75557;51.048;-0.424;2024-01-30T11:33:27;1;1;
85187;PMS5003;75557;51.048;-0.424;2024-01-30T11:35:49;1;1;
85187;PMS5003;75557;51.048;-0.424;2024-01-30T11:38:15;1;1;
85187;PMS5003;75557;51.048;-0.424;2024-01-30T11:40:41;1;1;
85187;PMS5003;75557;51.048;-0.424;2024-01-30T11:43:07;2;1;
85187;PMS5003;75557;51.048;-0.424;2024-01-30T11:45:32;0;0;
85187;PMS5003;75557;51.048;-0.424;2024-01-30T11:47:57;1;1;
85187;PMS5003;75557;51.048;-0.424;2024-01-30T11:50:23;1;1;
85187;PMS5003;75557;51.048;-0.424;2024-01-30T11:52:48;1;1;
85187;PMS5003;75557;51.048;-0.424;2024-01-30T11:55:14;2;1;
85187;PMS5003;75557;51.048;-0.424;2024-01-30T11:57:40;1;1;
85187;PMS5003;75557;51.048;-0.424;2024-01-30T12:00:06;1;1;
85187;PMS5003;75557;51.048;-0.424;2024-01-30T12:02:31;1;1;
85187;PMS5003;75557;51.048;-0.424;2024-01-30T12:04:56;1;1;
85187;PMS5003;75557;51.048;-0.424;2024-01-30T12:07:22;1;1;
85187;PMS5003;75557;51.048;-0.424;2024-01-30T12:09:52;3;3;
85187;PMS5003;75557;51.048;-0.424;2024-01-30T12:12:13;2;2;
85187;PMS5003;75557;51.048;-0.424;2024-01-30T12:14:39;1;1;
85187;PMS5003;75557;51.048;-0.424;2024-01-30T12:17:04;3;3;
85187;PMS5003;75557;51.048;-0.424;2024-01-30T12:19:30;3;1;
85187;PMS5003;75557;51.048;-0.424;2024-01-30T12:21:55;2;2;
85187;PMS5003;75557;51.048;-0.424;2024-01-30T12:24:21;2;1;
85187;PMS5003;75557;51.048;-0.424;2024-01-30T12:26:46;2;2;
85187;PMS5003;75557;51.048;-0.424;2024-01-30T12:29:12;3;3;
85187;PMS5003;75557;51.048;-0.424;2024-01-30T12:31:37;1;1;
85187;PMS5003;75557;51.048;-0.424;2024-01-30T12:34:03;2;2;
85187;PMS5003;75557;51.048;-0.424;2024-01-30T12:36:29;3;3;
85187;PMS5003;75557;51.048;-0.424;2024-01-30T12:38:54;2;2;
85187;PMS5003;75557;51.048;-0.424;2024-01-30T12:41:20;3;3;
85187;PMS5003;75557;51.048;-0.424;2024-01-30T12:43:45;1;1;
85187;PMS5003;75557;51.048;-0.424;2024-01-30T12:46:11;2;2;
85187;PMS5003;75557;51.048;-0.424;2024-01-30T12:48:36;3;3;
85187;PMS5003;75557;51.048;-0.424;2024-01-30T12:51:02;2;2;
85187;PMS5003;75557;51.048;-0.424;2024-01-30T12:53:28;2;2;
85187;PMS5003;75557;51.048;-0.424;2024-01-30T12:55:53;2;2;
85187;PMS5003;75557;51.048;-0.424;2024-01-30T12:58:20;1;1;
85187;PMS5003;75557;51.048;-0.424;2024-01-30T13:00:44;0;0;
85187;PMS5003;75557;51.048;-0.424;2024-01-30T13:03:10;3;1;
85187;PMS5003;75557;51.048;-0.424;2024-01-30T13:05:35;0;0;
85187;PMS5003;75557;51.048;-0.424;2024-01-30T13:08:01;2;2;
85187;PMS5003;75557;51.048;-0.424;2024-01-30T13:10:27;2;2;
85187;PMS5003;75557;51.048;-0.424;2024-01-30T13:12:52;2;2;
85187;PMS5003;75557;51.048;-0.424;2024-01-30T13:15:18;2;2;
85187;PMS5003;75557;51.048;-0.424;2024-01-30T13:17:43;2;2;
85187;PMS5003;75557;51.048;-0.424;2024-01-30T13:20:09;2;2;
85187;PMS5003;75557;51.048;-0.424;2024-01-30T13:22:34;2;2;
85187;PMS5003;75557;51.048;-0.424;2024-01-30T13:25:00;1;1;
85187;PMS5003;75557;51.048;-0.424;2024-01-30T13:27:26;1;1;
85187;PMS5003;75557;51.048;-0.424;2024-01-30T13:29:51;3;3;
85187;PMS5003;75557;51.048;-0.424;2024-01-30T13:32:17;2;2;
85187;PMS5003;75557;51.048;-0.424;2024-01-30T13:34:42;1;1;
85187;PMS5003;75557;51.048;-0.424;2024-01-30T13:37:08;1;1;
85187;PMS5003;75557;51.048;-0.424;2024-01-30T13:39:33;2;2;
85187;PMS5003;75557;51.048;-0.424;2024-01-30T13:41:59;2;2;
85187;PMS5003;75557;51.048;-0.424;2024-01-30T13:44:24;1;1;
85187;PMS5003;75557;51.048;-0.424;2024-01-30T13:46:50;1;1;
85187;PMS5003;75557;51.048;-0.424;2024-01-30T13:49:15;0;0;
85187;PMS5003;75557;51.048;-0.424;2024-01-30T13:51:41;1;1;
85187;PMS5003;75557;51.048;-0.424;2024-01-30T13:54:07;2;2;
85187;PMS5003;75557;51.048;-0.424;2024-01-30T13:56:32;2;2;
85187;PMS5003;75557;51.048;-0.424;2024-01-30T13:58:58;2;2;
85187;PMS5003;75557;51.048;-0.424;2024-01-30T14:01:23;3;3;
85187;PMS5003;75557;51.048;-0.424;2024-01-30T14:03:49;0;0;
85187;PMS5003;75557;51.048;-0.424;2024-01-30T14:06:14;0;0;
85187;PMS5003;75557;51.048;-0.424;2024-01-30T14:08:40;1;1;
85187;PMS5003;75557;51.048;-0.424;2024-01-30T14:11:05;2;1;
85187;PMS5003;75557;51.048;-0.424;2024-01-30T14:13:31;1;1;
85187;PMS5003;75557;51.048;-0.424;2024-01-30T14:15:57;1;1;
85187;PMS5003;75557;51.048;-0.424;2024-01-30T14:18:22;3;1;
85187;PMS5003;75557;51.048;-0.424;2024-01-30T14:20:48;1;1;
85187;PMS5003;75557;51.048;-0.424;2024-01-30T14:23:13;2;2;
85187;PMS5003;75557;51.048;-0.424;2024-01-30T14:25:39;0;0;
85187;PMS5003;75557;51.048;-0.424;2024-01-30T14:28:05;1;1;
85187;PMS5003;75557;51.048;-0.424;2024-01-30T14:30:30;0;0;
85187;PMS5003;75557;51.048;-0.424;2024-01-30T14:32:56;1;1;
85187;PMS5003;75557;51.048;-0.424;2024-01-30T14:35:21;2;1;
85187;PMS5003;75557;51.048;-0.424;2024-01-30T14:37:47;1;1;
85187;PMS5003;75557;51.048;-0.424;2024-01-30T14:40:12;0;0;
85187;PMS5003;75557;51.048;-0.424;2024-01-30T14:42:38;1;1;
85187;PMS5003;75557;51.048;-0.424;2024-01-30T14:45:04;0;0;
85187;PMS5003;75557;51.048;-0.424;2024-01-30T14:47:29;1;1;
85187;PMS5003;75557;51.048;-0.424;2024-01-30T14:49:54;1;1;
85187;PMS5003;75557;51.048;-0.424;2024-01-30T14:52:20;1;1;
85187;PMS5003;75557;51.048;-0.424;2024-01-30T14:54:46;1;1;
85187;PMS5003;75557;51.048;-0.424;2024-01-30T14:57:11;0;0;
85187;PMS5003;75557;51.048;-0.424;2024-01-30T14:59:37;0;0;
85187;PMS5003;75557;51.048;-0.424;2024-01-30T15:02:02;2;2;
85187;PMS5003;75557;51.048;-0.424;2024-01-30T15:04:28;1;1;
85187;PMS5003;75557;51.048;-0.424;2024-01-30T15:06:53;1;1;
85187;PMS5003;75557;51.048;-0.424;2024-01-30T15:09:19;1;1;
85187;PMS5003;75557;51.048;-0.424;2024-01-30T15:11:44;1;1;
85187;PMS5003;75557;51.048;-0.424;2024-01-30T15:14:10;0;0;
85187;PMS5003;75557;51.048;-0.424;2024-01-30T15:16:36;0;0;
85187;PMS5003;75557;51.048;-0.424;2024-01-30T15:19:01;1;1;
85187;PMS5003;75557;51.048;-0.424;2024-01-30T15:21:27;0;0;
85187;PMS5003;75557;51.048;-0.424;2024-01-30T15:23:52;1;1;
85187;PMS5003;75557;51.048;-0.424;2024-01-30T15:26:18;0;0;
85187;PMS5003;75557;51.048;-0.424;2024-01-30T15:28:43;1;1;
85187;PMS5003;75557;51.048;-0.424;2024-01-30T15:31:09;0;0;
85187;PMS5003;75557;51.048;-0.424;2024-01-30T15:33:35;2;0;
85187;PMS5003;75557;51.048;-0.424;2024-01-30T15:36:01;0;0;
85187;PMS5003;75557;51.048;-0.424;2024-01-30T15:38:26;1;1;
85187;PMS5003;75557;51.048;-0.424;2024-01-30T15:40:51;1;1;
85187;PMS5003;75557;51.048;-0.424;2024-01-30T15:43:17;0;0;
85187;PMS5003;75557;51.048;-0.424;2024-01-30T15:45:43;1;1;
85187;PMS5003;75557;51.048;-0.424;2024-01-30T15:48:08;0;0;
85187;PMS5003;75557;51.048;-0.424;2024-01-30T15:50:33;1;1;
85187;PMS5003;75557;51.048;-0.424;2024-01-30T15:52:59;1;1;
85187;PMS5003;75557;51.048;-0.424;2024-01-30T15:55:24;0;0;
85187;PMS5003;75557;51.048;-0.424;2024-01-30T15:57:50;0;0;
85187;PMS5003;75557;51.048;-0.424;2024-01-30T16:00:16;0;0;
85187;PMS5003;75557;51.048;-0.424;2024-01-30T16:02:41;0;0;
85187;PMS5003;75557;51.048;-0.424;2024-01-30T16:05:07;1;0;
85187;PMS5003;75557;51.048;-0.424;2024-01-30T16:07:32;0;0;
85187;PMS5003;75557;51.048;-0.424;2024-01-30T16:09:58;0;0;
85187;PMS5003;75557;51.048;-0.424;2024-01-30T16:12:23;0;0;
85187;PMS5003;75557;51.048;-0.424;2024-01-30T16:14:49;0;0;
85187;PMS5003;75557;51.048;-0.424;2024-01-30T16:17:15;0;0;
85187;PMS5003;75557;51.048;-0.424;2024-01-30T16:19:40;0;0;
85187;PMS5003;75557;51.048;-0.424;2024-01-30T16:22:06;0;0;